Thursday, September 18, 2014
21:52 UTC
  |  Log In   |  Register Free
Airport Search:

Indiana County/Jimmy Stewart Fld/ Airport
(KIDI)

Indiana County/Jimmy Stewart Fld/ Airport Diagram
No Airport Diagram Available

FAA data valid effective September 18, 2014 - November 13, 2014 (unless otherwise noted).

 
 
 
 
 
 
 
 
 
 
 
 
 
 

Current Aviation Weather for Indiana County/Jimmy Stewart Fld/ Airport (KIDI)

The most recent METAR observation for KIDI was updated at: 2114
METAR Summary (Translated METAR)
KIDI
182055Z AUTO 10SM CLR 19/07 A3012 RMK A01
KJST
182054Z AUTO 35008KT 10SM FEW048 17/05 A3008 RMK AO2 SLP185 T01720050 58001
(22.7 nm SE from KIDI)
KLBE
182045Z 36010KT 10SM SCT050 19/08 A3008
(25.5 nm SW from KIDI)
TAF Summary (Translated TAF)
KJST
(22.7 nm SE from KIDI)
182058Z 1821/1918 35005KT P6SM FEW045 FM190700 08003KT P6SM BKN015 FM191300 13007KT P6SM BKN050
KLBE
(25.5 nm SW from KIDI)
181723Z 1818/1918 34006KT P6SM BKN040 FM190200 02006KT P6SM SCT250
  Airport Weather Conditions for KIDI

 Current Weather at IDI
66° F
Fair
IDI NOAA Radar

Pressure: 30.12 in
Humidity: 46%
Dew Point: 44.6°F
Visibility: 10.00 mi


Airport Weather Forecast for KIDI

Translated METAR and TAF for KIDI
Translated METAR for KIDI (2146 UTC 18 September 2014)
found at http://aviationweather.gov/adds/metars/
 
METAR text: KIDI 182135Z AUTO 33005KT 10SM CLR 19/07 A3011 RMK A01
Conditions at: KIDI (INDIANA/STEWART , PA, US) observed 2135 UTC 18 September 2014
Temperature: 19.0°C (66°F)
Dewpoint: 7.0°C (45°F) [RH = 46%]
Pressure (altimeter): 30.11 inches Hg (1019.7 mb)
Winds: from the NNW (330 degrees) at 6 MPH (5 knots; 2.6 m/s)
Visibility: 10 or more miles (16+ km)
Ceiling: at least 12,000 feet AGL
Clouds: sky clear below 12,000 feet AGL
Weather: automated observation with no human augmentation;
there may or may not be significant weather present at this time
Translated TAF for KIDI

There is no translated TAF available for this airport

Find All Airport Services Find A Hotel Find A Rental Car Find A Golf Course Find A Restaurant $100 Hamburger



FBO's on the Field
FBO Company Facility Photos Services Transportation Aviation Fuel Prices: Prices include tax
Catering Weather Repair Courtesy Rental Type 100LL JetA JetA+ MOGAS 8087
 
Indiana County Jimmy Stewart Airport

Currently rated 5 by 1 person
FS:Phillips66
Last Updated: Sep-17
Login to update fuel prices
SS:
Contact Indiana County Jimmy Stewart AirportMore FBO Information
 
Add another FBO Facility Photos Catering Weather Repair Courtesy Rental Type 100LL JetA JetA+ MOGAS 8087
Services Transportation Aviation Fuel Prices: Prices include tax


model-print
model-print
model-print
model-print